Time;durP1;ratioP1;P1;durP2;ratioP2;P2;SDS_P1;SDS_P2;PMS_P1;PMS_P2;Temp;Humidity;BMP_temperature;BMP_pressure;BME280_temperature;BME280_humidity;BME280_pressure;Samples;Min_cycle;Max_cycle;Signal;HPM_P1;HPM_P2
2023/01/13 00:01:20;;;;;;;30.63;4.50;;;;;;;-143.29;100.00;62188.47;4914894;29;20507;-93
2023/01/13 00:03:46;;;;;;;41.63;6.07;;;;;;;-143.29;100.00;62188.47;4914630;29;20036;-94
2023/01/13 00:06:14;;;;;;;30.10;4.60;;;;;;;-143.29;100.00;62188.47;4914672;29;20563;-96
2023/01/13 00:08:39;;;;;;;25.92;5.15;;;;;;;-143.29;100.00;62188.47;4914944;29;20028;-94
2023/01/13 00:11:05;;;;;;;31.80;5.93;;;;;;;-143.29;100.00;62188.47;4914706;29;20036;-94
2023/01/13 00:13:34;;;;;;;36.30;6.00;;;;;;;-143.29;100.00;62188.47;4914688;29;20404;-96
2023/01/13 00:16:02;;;;;;;41.33;6.70;;;;;;;-143.29;100.00;62188.47;4914480;29;20033;-94
2023/01/13 00:18:28;;;;;;;39.53;5.88;;;;;;;-143.29;100.00;62188.47;4915175;29;20051;-94
2023/01/13 00:21:06;;;;;;;44.35;6.80;;;;;;;-143.29;100.00;62188.47;4914872;29;20475;-95
2023/01/13 00:23:33;;;;;;;34.33;5.68;;;;;;;-143.29;100.00;62188.47;4914730;29;20298;-95
2023/01/13 00:26:01;;;;;;;31.88;5.30;;;;;;;-143.29;100.00;62188.47;4914549;29;20029;-94
2023/01/13 00:28:27;;;;;;;40.15;5.60;;;;;;;-143.29;100.00;62188.47;4914518;29;20033;-93
2023/01/13 00:30:56;;;;;;;42.72;5.88;;;;;;;-143.29;100.00;62188.47;4914250;29;20120;-94
2023/01/13 00:33:22;;;;;;;38.35;7.38;;;;;;;-143.29;100.00;62188.47;4914122;29;20028;-94
2023/01/13 00:35:58;;;;;;;32.90;5.18;;;;;;;-143.29;100.00;62188.47;4914121;29;20403;-93
2023/01/13 00:38:24;;;;;;;37.25;5.47;;;;;;;-143.29;100.00;62188.47;4914369;29;20495;-94
2023/01/13 00:41:01;;;;;;;29.75;4.75;;;;;;;-143.29;100.00;62188.47;4913754;29;20032;-94
2023/01/13 00:43:28;;;;;;;26.13;4.00;;;;;;;-143.29;100.00;62188.47;4914219;29;20120;-94
2023/01/13 00:45:54;;;;;;;36.25;7.05;;;;;;;-143.29;100.00;62188.47;4914020;29;20039;-93
2023/01/13 00:48:21;;;;;;;38.50;4.88;;;;;;;-143.29;100.00;62188.47;4899437;29;20032;-94
2023/01/13 00:50:54;;;;;;;33.80;4.72;;;;;;;-143.29;100.00;62188.47;4914886;29;20440;-92
2023/01/13 00:53:20;;;;;;;47.25;7.35;;;;;;;-143.29;100.00;62188.47;4917934;29;20074;-93
2023/01/13 00:55:46;;;;;;;38.55;5.85;;;;;;;-143.29;100.00;62188.47;4917015;29;20032;-92
2023/01/13 00:58:11;;;;;;;33.53;5.57;;;;;;;-143.29;100.00;62188.47;4917491;29;20066;-94
2023/01/13 01:00:37;;;;;;;35.85;5.43;;;;;;;-143.29;100.00;62188.47;4917381;29;20162;-92
2023/01/13 01:03:07;;;;;;;30.02;4.97;;;;;;;-143.29;100.00;62188.47;4918419;29;20564;-92
2023/01/13 01:05:32;;;;;;;32.75;5.43;;;;;;;-143.29;100.00;62188.47;4917864;29;20056;-92
2023/01/13 01:07:58;;;;;;;26.23;4.05;;;;;;;-143.29;100.00;62188.47;4916863;29;20066;-92
2023/01/13 01:10:23;;;;;;;38.03;4.72;;;;;;;-143.29;100.00;62188.47;4918014;29;20028;-92
2023/01/13 01:12:49;;;;;;;32.28;4.35;;;;;;;-143.29;100.00;62188.47;4918371;29;20077;-92
2023/01/13 01:15:16;;;;;;;33.55;5.20;;;;;;;-143.29;100.00;62188.47;4915275;29;20432;-93
2023/01/13 01:17:41;;;;;;;38.15;5.15;;;;;;;-143.29;100.00;62188.47;4913921;29;20029;-93
2023/01/13 01:20:07;;;;;;;39.92;7.07;;;;;;;-143.29;100.00;62188.47;4914259;29;20032;-94
2023/01/13 01:22:33;;;;;;;32.38;6.25;;;;;;;-143.29;100.00;62188.47;4914839;29;20024;-92
2023/01/13 01:24:58;;;;;;;38.88;5.47;;;;;;;-143.29;100.00;62188.47;4914705;29;20032;-93
2023/01/13 01:27:24;;;;;;;37.67;6.20;;;;;;;-143.29;100.00;62188.47;4914659;29;20053;-94
2023/01/13 01:29:49;;;;;;;26.00;4.57;;;;;;;-143.29;100.00;62188.47;4915166;29;20039;-94
2023/01/13 01:32:15;;;;;;;30.85;4.63;;;;;;;-143.29;100.00;62188.47;4914146;29;20037;-94
2023/01/13 01:34:40;;;;;;;38.67;6.32;;;;;;;-143.29;100.00;62188.47;4913596;29;20498;-94
2023/01/13 01:37:06;;;;;;;25.63;5.57;;;;;;;-143.29;100.00;62188.47;4913534;29;20084;-93
2023/01/13 01:39:31;;;;;;;35.83;5.07;;;;;;;-143.29;100.00;62188.47;4899418;29;20045;-93
2023/01/13 01:44:41;;;;;;;36.10;4.88;;;;;;;-143.29;100.00;62188.47;4899818;29;20116;-93
2023/01/13 01:47:10;;;;;;;32.05;4.85;;;;;;;-143.29;100.00;62188.47;4913421;29;20064;-94
2023/01/13 01:49:37;;;;;;;45.30;5.82;;;;;;;-143.29;100.00;62188.47;4913730;29;20128;-94
2023/01/13 01:52:05;;;;;;;35.65;5.97;;;;;;;-143.29;100.00;62188.47;4913105;29;20068;-94
2023/01/13 01:54:41;;;;;;;32.83;6.22;;;;;;;-143.29;100.00;62188.47;4913517;29;20476;-94
2023/01/13 01:57:13;;;;;;;43.58;5.75;;;;;;;-143.29;100.00;62188.47;4913211;29;20103;-93
2023/01/13 01:59:39;;;;;;;40.78;5.85;;;;;;;-143.29;100.00;62188.47;4913225;29;20040;-94
2023/01/13 02:02:05;;;;;;;33.70;5.68;;;;;;;-143.29;100.00;62188.47;4899018;29;20036;-94
2023/01/13 02:04:38;;;;;;;33.95;4.60;;;;;;;-143.29;100.00;62188.47;4913195;29;20025;-92
2023/01/13 02:07:04;;;;;;;36.33;5.00;;;;;;;-143.29;100.00;62188.47;4899059;29;20028;-92
2023/01/13 02:09:30;;;;;;;44.45;8.10;;;;;;;-143.29;100.00;62188.47;4913045;29;20031;-94
2023/01/13 02:14:41;;;;;;;31.98;5.45;;;;;;;-143.29;100.00;62188.47;4897857;29;20176;-93
2023/01/13 02:17:21;;;;;;;40.47;7.00;;;;;;;-143.29;100.00;62188.47;4912763;29;20025;-93
2023/01/13 02:20:24;;;;;;;32.80;5.57;;;;;;;-143.29;100.00;62188.47;4912601;29;20056;-92
2023/01/13 02:26:11;;;;;;;33.90;4.88;;;;;;;-143.29;100.00;62188.47;4897759;29;20510;-94
2023/01/13 02:32:08;;;;;;;29.20;4.50;;;;;;;-143.29;100.00;62188.47;4898012;29;20097;-93
2023/01/13 02:34:51;;;;;;;36.65;5.38;;;;;;;-143.29;100.00;62188.47;4912616;29;20028;-93
2023/01/13 02:37:27;;;;;;;34.53;5.90;;;;;;;-143.29;100.00;62188.47;4912546;29;20028;-93
2023/01/13 02:40:11;;;;;;;44.25;6.40;;;;;;;-143.29;100.00;62188.47;4912373;29;20031;-95
2023/01/13 02:45:44;;;;;;;29.52;5.03;;;;;;;-143.29;100.00;62188.47;4898158;29;20221;-93
2023/01/13 02:48:12;;;;;;;43.08;5.82;;;;;;;-143.29;100.00;62188.47;4912801;29;20144;-93
2023/01/13 02:50:43;;;;;;;20.60;5.03;;;;;;;-143.29;100.00;62188.47;4912829;29;20445;-94
2023/01/13 02:53:24;;;;;;;29.60;4.00;;;;;;;-143.29;100.00;62188.47;4912147;29;20040;-92
2023/01/13 02:55:53;;;;;;;31.13;5.00;;;;;;;-143.29;100.00;62188.47;4912457;29;20400;-93
2023/01/13 02:58:23;;;;;;;32.55;5.63;;;;;;;-143.29;100.00;62188.47;4912269;29;20052;-92
2023/01/13 03:00:49;;;;;;;33.67;5.15;;;;;;;-143.29;100.00;62188.47;4897714;29;20480;-93
2023/01/13 03:03:15;;;;;;;26.60;5.05;;;;;;;-143.29;100.00;62188.47;4912800;29;20084;-93
2023/01/13 03:05:43;;;;;;;31.00;4.75;;;;;;;-143.29;100.00;62188.47;4912603;29;20032;-93
2023/01/13 03:08:38;;;;;;;34.08;4.50;;;;;;;-143.29;100.00;62188.47;4912581;29;20035;-92
2023/01/13 03:11:10;;;;;;;33.22;5.88;;;;;;;-143.29;100.00;62188.47;4912777;29;20132;-95
2023/01/13 03:13:41;;;;;;;31.88;4.43;;;;;;;-143.29;100.00;62188.47;4912037;29;20092;-93
2023/01/13 03:16:30;;;;;;;43.75;5.10;;;;;;;-143.29;100.00;62188.47;4913160;29;20044;-93
2023/01/13 03:19:15;;;;;;;34.13;5.55;;;;;;;-143.29;100.00;62188.47;4913068;29;20039;-93
2023/01/13 03:21:56;;;;;;;39.75;5.63;;;;;;;-143.29;100.00;62188.47;4912652;29;20119;-95
2023/01/13 03:24:33;;;;;;;36.23;6.27;;;;;;;-143.29;100.00;62188.47;4912613;29;20397;-94
2023/01/13 03:27:17;;;;;;;34.95;4.20;;;;;;;-143.29;100.00;62188.47;4915828;29;20032;-94
2023/01/13 03:29:54;;;;;;;37.80;5.25;;;;;;;-143.29;100.00;62188.47;4916022;29;20039;-94
2023/01/13 03:32:34;;;;;;;36.42;5.68;;;;;;;-143.29;100.00;62188.47;4915903;29;20037;-94
2023/01/13 03:35:03;;;;;;;37.58;4.78;;;;;;;-143.29;100.00;62188.47;4915661;29;20035;-93
2023/01/13 03:37:33;;;;;;;34.50;4.75;;;;;;;-143.29;100.00;62188.47;4915654;29;20077;-93
2023/01/13 03:40:22;;;;;;;20.08;4.15;;;;;;;-143.29;100.00;62188.47;4915521;29;20025;-93
2023/01/13 03:45:50;;;;;;;27.45;4.07;;;;;;;-143.29;100.00;62188.47;4901419;29;20031;-94
2023/01/13 03:48:21;;;;;;;24.98;3.85;;;;;;;-143.29;100.00;62188.47;4915908;29;20384;-95
2023/01/13 03:50:50;;;;;;;27.23;3.30;;;;;;;-143.29;100.00;62188.47;4916176;29;20028;-93
2023/01/13 03:53:29;;;;;;;24.35;5.05;;;;;;;-143.29;100.00;62188.47;4917219;29;20032;-94
2023/01/13 03:56:00;;;;;;;30.17;4.32;;;;;;;-143.29;100.00;62188.47;4915243;29;20028;-93
2023/01/13 03:58:32;;;;;;;31.00;4.82;;;;;;;-143.29;100.00;62188.47;4915378;29;20150;-92
2023/01/13 04:01:03;;;;;;;;;;;;;;;-143.29;100.00;62188.47;4916254;29;20060;-94
2023/01/13 04:03:41;;;;;;;30.05;5.15;;;;;;;-143.29;100.00;62188.47;4915391;29;19916;-96
2023/01/13 04:06:24;;;;;;;29.35;4.53;;;;;;;-143.29;100.00;62188.47;4915380;29;20029;-94
2023/01/13 04:09:01;;;;;;;36.28;5.45;;;;;;;-143.29;100.00;62188.47;4916815;29;20048;-95
2023/01/13 04:11:34;;;;;;;30.88;4.35;;;;;;;-143.29;100.00;62188.47;4915432;29;20069;-94
2023/01/13 04:14:02;;;;;;;28.58;5.07;;;;;;;-143.29;100.00;62188.47;4915765;29;20028;-94
2023/01/13 04:16:28;;;;;;;50.00;6.85;;;;;;;-143.29;100.00;62188.47;4915622;29;20059;-94
2023/01/13 04:18:54;;;;;;;28.98;4.60;;;;;;;-143.29;100.00;62188.47;4915227;29;20108;-94
2023/01/13 04:21:20;;;;;;;34.80;4.35;;;;;;;-143.29;100.00;62188.47;4915342;29;20476;-95
2023/01/13 04:23:45;;;;;;;30.55;5.05;;;;;;;-143.29;100.00;62188.47;4915940;29;20048;-94
2023/01/13 04:26:11;;;;;;;32.88;5.43;;;;;;;-143.29;100.00;62188.47;4925337;29;20054;-95
2023/01/13 04:28:36;;;;;;;37.90;7.85;;;;;;;-143.29;100.00;62188.47;4933949;29;20395;-93
2023/01/13 04:31:02;;;;;;;40.88;6.40;;;;;;;-143.29;100.00;62188.47;4934262;29;20059;-95
2023/01/13 04:33:27;;;;;;;38.72;4.97;;;;;;;-143.29;100.00;62188.47;4917937;29;20036;-93
2023/01/13 04:35:53;;;;;;;39.30;5.80;;;;;;;-143.29;100.00;62188.47;4933825;29;20032;-94
2023/01/13 04:38:20;;;;;;;48.17;4.88;;;;;;;-143.29;100.00;62188.47;4933663;29;20635;-93
2023/01/13 04:40:46;;;;;;;34.65;4.88;;;;;;;-143.29;100.00;62188.47;4933814;29;20163;-93
2023/01/13 04:43:12;;;;;;;49.90;6.32;;;;;;;-143.29;100.00;62188.47;4935576;29;20079;-94
2023/01/13 04:45:37;;;;;;;30.10;4.57;;;;;;;-143.29;100.00;62188.47;4919617;29;20031;-93
2023/01/13 04:48:03;;;;;;;29.00;4.85;;;;;;;-143.29;100.00;62188.47;4918692;29;20096;-95
2023/01/13 04:50:29;;;;;;;36.08;6.53;;;;;;;-143.29;100.00;62188.47;4918708;29;20119;-94
2023/01/13 04:52:55;;;;;;;32.55;5.20;;;;;;;-143.29;100.00;62188.47;4917899;29;20391;-94
2023/01/13 04:55:23;;;;;;;33.78;5.78;;;;;;;-143.29;100.00;62188.47;4933341;29;20074;-95
2023/01/13 04:57:49;;;;;;;35.50;5.03;;;;;;;-143.29;100.00;62188.47;4918383;29;20083;-93
2023/01/13 05:00:17;;;;;;;39.78;5.60;;;;;;;-143.29;100.00;62188.47;4933684;29;20036;-94
2023/01/13 05:02:43;;;;;;;33.40;5.50;;;;;;;-143.29;100.00;62188.47;4920146;29;20487;-93
2023/01/13 05:05:09;;;;;;;44.10;5.53;;;;;;;-143.29;100.00;62188.47;4933346;29;20091;-94
2023/01/13 05:07:34;;;;;;;39.85;5.63;;;;;;;-143.29;100.00;62188.47;4917906;29;20024;-93
2023/01/13 05:10:00;;;;;;;37.70;6.45;;;;;;;-143.29;100.00;62188.47;4933026;29;20026;-92
2023/01/13 05:17:59;;;;;;;28.50;4.68;;;;;;;-143.29;100.00;62188.47;4919318;29;20394;-94
2023/01/13 05:20:25;;;;;;;39.78;4.22;;;;;;;-143.29;100.00;62188.47;4917863;29;20032;-94
2023/01/13 05:25:40;;;;;;;32.30;4.70;;;;;;;-143.29;100.00;62188.47;4923466;29;20043;-94
2023/01/13 05:28:06;;;;;;;23.23;4.75;;;;;;;-143.29;100.00;62188.47;4919322;29;20028;-93
2023/01/13 05:30:36;;;;;;;22.50;3.97;;;;;;;-143.29;100.00;62188.47;4918629;29;20033;-93
2023/01/13 05:33:02;;;;;;;31.42;6.40;;;;;;;-143.29;100.00;62188.47;4917191;29;20107;-94
2023/01/13 05:35:28;;;;;;;29.15;4.45;;;;;;;-143.29;100.00;62188.47;4932938;29;20459;-93
2023/01/13 05:37:54;;;;;;;26.80;4.10;;;;;;;-143.29;100.00;62188.47;4932861;29;20376;-93
2023/01/13 05:43:24;;;;;;;25.08;4.13;;;;;;;-143.29;100.00;62188.47;4917796;29;20043;-92
2023/01/13 05:45:59;;;;;;;22.45;4.13;;;;;;;-143.29;100.00;62188.47;4932938;29;20028;-94
2023/01/13 05:48:37;;;;;;;21.33;3.30;;;;;;;-143.29;100.00;62188.47;4917595;29;20035;-95
2023/01/13 05:51:05;;;;;;;23.52;3.63;;;;;;;-143.29;100.00;62188.47;4916906;29;20083;-93
2023/01/13 05:53:31;;;;;;;24.90;2.97;;;;;;;-143.29;100.00;62188.47;4920274;29;20126;-94
2023/01/13 05:55:57;;;;;;;19.15;3.28;;;;;;;-143.29;100.00;62188.47;4931974;29;20024;-95
2023/01/13 05:58:25;;;;;;;28.90;3.85;;;;;;;-143.29;100.00;62188.47;4931954;29;20398;-93
2023/01/13 06:00:51;;;;;;;19.15;2.35;;;;;;;-143.29;100.00;62188.47;4916409;29;20028;-94
2023/01/13 06:03:21;;;;;;;30.52;5.57;;;;;;;-143.29;100.00;62188.47;4916408;29;20039;-93
2023/01/13 06:05:47;;;;;;;23.40;4.13;;;;;;;-143.29;100.00;62188.47;4916083;29;20079;-93
2023/01/13 06:08:13;;;;;;;29.42;3.38;;;;;;;-143.29;100.00;62188.47;4916769;29;20032;-94
2023/01/13 06:10:38;;;;;;;22.83;3.65;;;;;;;-143.29;100.00;62188.47;4932406;29;20372;-93
2023/01/13 06:13:04;;;;;;;17.98;2.88;;;;;;;-143.29;100.00;62188.47;4934683;29;20092;-93
2023/01/13 06:15:30;;;;;;;27.30;3.78;;;;;;;-143.29;100.00;62188.47;4937415;29;20029;-93
2023/01/13 06:17:57;;;;;;;18.38;3.80;;;;;;;-143.29;100.00;62188.47;4938188;29;20024;-92
2023/01/13 06:20:23;;;;;;;26.00;4.30;;;;;;;-143.29;100.00;62188.47;4921994;29;20032;-92
2023/01/13 06:22:51;;;;;;;31.20;4.22;;;;;;;-143.29;100.00;62188.47;4939811;29;20395;-92
2023/01/13 06:26:05;;;;;;;24.73;4.00;;;;;;;-143.29;100.00;62188.47;4921671;29;20546;-92
2023/01/13 06:28:32;;;;;;;22.52;2.72;;;;;;;-143.29;100.00;62188.47;4913241;29;20042;-93
2023/01/13 06:31:04;;;;;;;19.77;3.78;;;;;;;-143.29;100.00;62188.47;4937262;29;20054;-92
2023/01/13 06:33:35;;;;;;;19.67;4.22;;;;;;;-143.29;100.00;62188.47;4919961;29;20129;-93
2023/01/13 06:36:09;;;;;;;28.42;4.80;;;;;;;-143.29;100.00;62188.47;4919371;29;20123;-93
2023/01/13 06:38:38;;;;;;;31.65;4.15;;;;;;;-143.29;100.00;62188.47;4917415;29;20092;-93
2023/01/13 06:41:06;;;;;;;21.52;3.72;;;;;;;-143.29;100.00;62188.47;4916309;29;20035;-93
2023/01/13 06:43:31;;;;;;;27.85;4.55;;;;;;;-143.29;100.00;62188.47;4916586;29;20088;-95
2023/01/13 06:45:57;;;;;;;29.70;3.67;;;;;;;-143.29;100.00;62188.47;4932515;29;20028;-93
2023/01/13 06:48:26;;;;;;;23.67;3.35;;;;;;;-143.29;100.00;62188.47;4932786;29;20036;-93
2023/01/13 06:50:52;;;;;;;27.30;3.50;;;;;;;-143.29;100.00;62188.47;4932646;29;20091;-93
2023/01/13 06:53:18;;;;;;;28.02;4.65;;;;;;;-143.29;100.00;62188.47;4917599;29;20024;-93
2023/01/13 07:10:25;;;;;;;21.10;4.03;;;;;;;5.62;100.00;99647.94;5078638;27;20165;-96
2023/01/13 07:15:35;;;;;;;22.83;3.45;;;;;;;5.73;100.00;99678.13;5066894;28;20103;-93
2023/01/13 07:18:01;;;;;;;22.42;3.08;;;;;;;5.63;100.00;99667.50;5043462;28;20495;-94
2023/01/13 07:20:28;;;;;;;21.02;3.03;;;;;;;5.45;100.00;99650.53;5047068;28;20033;-96
2023/01/13 07:22:57;;;;;;;24.55;3.58;;;;;;;5.65;100.00;99693.06;5047948;28;20453;-96
2023/01/13 07:25:23;;;;;;;27.20;3.42;;;;;;;5.49;100.00;99682.75;5048449;28;20025;-94
2023/01/13 07:27:48;;;;;;;21.77;3.25;;;;;;;5.51;100.00;99699.69;5047862;28;20442;-95
2023/01/13 07:30:14;;;;;;;37.83;4.22;;;;;;;5.56;100.00;99713.09;5048584;28;20031;-94
2023/01/13 07:32:40;;;;;;;17.60;3.45;;;;;;;5.49;100.00;99713.47;5048105;28;20029;-94
2023/01/13 07:35:06;;;;;;;20.10;2.85;;;;;;;5.62;100.00;99726.50;5048546;28;20464;-94
2023/01/13 07:37:36;;;;;;;18.58;3.17;;;;;;;5.64;100.00;99727.25;5048966;28;20053;-94
2023/01/13 07:40:03;;;;;;;23.85;3.08;;;;;;;5.53;100.00;99726.00;5048888;28;20053;-93
2023/01/13 07:45:13;;;;;;;26.95;3.63;;;;;;;5.27;100.00;99741.78;5050384;28;20059;-95
2023/01/13 07:47:39;;;;;;;27.77;4.40;;;;;;;5.37;100.00;99755.81;5048747;28;20025;-94
2023/01/13 07:50:05;;;;;;;16.65;2.90;;;;;;;5.25;100.00;99764.06;5048815;28;20418;-94
2023/01/13 07:52:31;;;;;;;24.20;2.90;;;;;;;5.26;100.00;99761.41;5048735;28;20033;-95
2023/01/13 07:54:57;;;;;;;24.55;2.72;;;;;;;5.40;100.00;99747.97;5048764;28;20108;-94
2023/01/13 07:57:22;;;;;;;13.80;2.10;;;;;;;5.14;100.00;99752.59;5048681;28;20035;-94
2023/01/13 07:59:48;;;;;;;16.27;2.92;;;;;;;5.12;100.00;99744.16;5048510;28;20032;-94
2023/01/13 08:02:13;;;;;;;18.20;3.22;;;;;;;5.17;100.00;99761.00;5049087;28;20029;-94
2023/01/13 08:04:39;;;;;;;26.65;3.10;;;;;;;5.38;100.00;99783.06;5048978;28;20026;-93
2023/01/13 08:07:05;;;;;;;16.98;2.90;;;;;;;5.37;100.00;99778.84;5048531;28;20108;-94
2023/01/13 08:09:31;;;;;;;24.77;4.28;;;;;;;5.45;100.00;99796.41;5048668;28;20048;-94
2023/01/13 08:14:40;;;;;;;22.90;3.40;;;;;;;5.20;100.00;99782.19;5050082;28;20193;-93
2023/01/13 08:17:07;;;;;;;24.98;4.18;;;;;;;5.43;100.00;99778.53;5048238;28;20475;-94
2023/01/13 08:19:33;;;;;;;39.80;4.75;;;;;;;5.60;100.00;99805.09;5046170;28;20395;-94
2023/01/13 08:21:59;;;;;;;25.05;3.75;;;;;;;5.75;100.00;99791.53;5035089;28;20032;-93
2023/01/13 08:24:26;;;;;;;32.28;3.30;;;;;;;5.92;100.00;99799.25;5034897;28;20029;-95
2023/01/13 08:26:52;;;;;;;25.63;4.70;;;;;;;6.03;100.00;99821.00;5034692;28;20025;-94
2023/01/13 08:29:17;;;;;;;20.88;2.80;;;;;;;5.95;99.01;99801.72;5034494;28;20064;-94
2023/01/13 08:31:43;;;;;;;22.88;3.00;;;;;;;6.02;95.47;99806.53;5034910;28;20093;-94
2023/01/13 08:34:08;;;;;;;25.00;4.20;;;;;;;6.15;96.51;99825.53;5034769;28;20021;-94
2023/01/13 08:36:34;;;;;;;14.90;2.63;;;;;;;5.97;94.06;99812.72;5034991;28;20108;-94
2023/01/13 08:39:00;;;;;;;18.67;2.88;;;;;;;6.16;93.27;99825.44;5034824;28;20116;-94
2023/01/13 08:44:09;;;;;;;21.58;4.28;;;;;;;6.50;93.09;99848.56;5035997;28;20064;-95
2023/01/13 08:46:35;;;;;;;22.45;2.92;;;;;;;6.60;92.44;99863.41;5034605;28;20018;-93
2023/01/13 08:49:01;;;;;;;28.25;3.83;;;;;;;6.57;92.81;99839.66;5034110;28;20403;-94
2023/01/13 08:51:26;;;;;;;18.42;2.70;;;;;;;6.59;93.51;99841.25;5034670;28;20026;-94
2023/01/13 08:53:52;;;;;;;23.48;3.00;;;;;;;6.67;94.94;99860.56;5034413;28;20033;-94
2023/01/13 08:56:17;;;;;;;23.90;4.13;;;;;;;6.61;95.28;99871.97;5035507;28;20021;-94
2023/01/13 08:58:43;;;;;;;19.85;3.40;;;;;;;6.65;95.20;99856.31;5034201;28;20633;-94
2023/01/13 09:01:12;;;;;;;27.85;3.83;;;;;;;6.86;96.18;99882.63;5034204;28;20028;-94
2023/01/13 09:03:38;;;;;;;26.33;3.95;;;;;;;6.75;93.62;99864.38;5034372;28;20549;-94
2023/01/13 09:06:04;;;;;;;31.75;5.13;;;;;;;6.83;94.92;99877.66;5034405;28;20037;-94
2023/01/13 09:08:29;;;;;;;13.07;2.83;;;;;;;6.85;94.35;99865.59;5033998;28;20083;-95
2023/01/13 09:10:56;;;;;;;21.75;3.35;;;;;;;6.75;95.80;99879.75;5036015;28;20311;-95
2023/01/13 09:13:21;;;;;;;21.95;3.92;;;;;;;6.76;94.71;99881.44;5034228;28;20099;-94
2023/01/13 09:15:47;;;;;;;27.30;4.03;;;;;;;7.17;93.96;99877.63;5033995;28;20593;-94
2023/01/13 09:18:13;;;;;;;31.80;3.80;;;;;;;7.57;91.34;99894.31;5033992;28;20057;-94
2023/01/13 09:20:39;;;;;;;26.73;4.15;;;;;;;7.68;91.23;99884.31;5034001;28;20456;-94
2023/01/13 09:23:05;;;;;;;33.30;3.67;;;;;;;7.71;90.88;99866.16;5033938;28;20026;-95
2023/01/13 09:25:30;;;;;;;29.67;3.65;;;;;;;7.74;91.15;99913.97;5033664;28;20033;-94
2023/01/13 09:27:56;;;;;;;26.42;3.47;;;;;;;7.57;92.57;99908.91;5033414;28;20120;-94
2023/01/13 09:30:22;;;;;;;24.30;3.58;;;;;;;7.89;90.65;99925.16;5033974;28;20479;-95
2023/01/13 09:32:48;;;;;;;27.30;4.10;;;;;;;7.97;89.68;99935.00;5032470;28;20022;-95
2023/01/13 09:35:13;;;;;;;29.35;4.20;;;;;;;7.85;88.91;99909.09;5033153;28;20029;-95
2023/01/13 09:37:40;;;;;;;25.27;3.75;;;;;;;8.32;87.89;99943.34;5033299;28;20245;-95
2023/01/13 09:40:11;;;;;;;31.90;5.70;;;;;;;8.13;88.78;99941.78;5032973;28;20411;-94
2023/01/13 09:45:53;;;;;;;22.25;3.47;;;;;;;8.09;87.63;99930.00;5034374;28;20036;-95
2023/01/13 09:48:50;;;;;;;21.33;4.10;;;;;;;8.39;86.96;99961.81;5033241;28;20029;-94
2023/01/13 09:51:44;;;;;;;26.73;5.15;;;;;;;8.22;87.30;99947.31;5032922;28;20025;-95
2023/01/13 09:54:12;;;;;;;20.77;3.15;;;;;;;8.28;87.71;99949.56;5025922;28;20037;-93
2023/01/13 09:56:37;;;;;;;26.50;4.18;;;;;;;7.98;87.80;99958.06;5033014;28;20026;-95
2023/01/13 09:59:03;;;;;;;29.15;4.30;;;;;;;8.17;87.06;99954.47;5034236;28;20056;-94
2023/01/13 10:01:58;;;;;;;33.40;5.75;;;;;;;8.34;86.19;99962.09;5032636;28;20049;-95
2023/01/13 10:04:24;;;;;;;24.25;3.47;;;;;;;8.10;87.53;99961.72;5032512;28;20025;-95
2023/01/13 10:06:55;;;;;;;26.88;3.45;;;;;;;8.32;86.00;99948.50;5032296;28;20025;-94
2023/01/13 10:09:37;;;;;;;21.50;4.78;;;;;;;8.51;86.17;99990.31;5032426;28;20061;-94
2023/01/13 10:14:57;;;;;;;23.25;3.53;;;;;;;8.02;88.34;99992.97;5033800;28;20391;-95
2023/01/13 10:17:48;;;;;;;28.83;6.53;;;;;;;8.64;86.02;100025.63;5031067;28;20034;-95
2023/01/13 10:20:23;;;;;;;27.65;4.18;;;;;;;8.89;82.82;100010.44;5041277;28;20037;-94
2023/01/13 10:23:00;;;;;;;20.48;3.42;;;;;;;9.06;81.32;100021.53;5029715;28;20116;-95
2023/01/13 10:25:47;;;;;;;32.53;4.53;;;;;;;8.76;81.73;100042.94;5029403;28;20033;-94
2023/01/13 10:28:23;;;;;;;31.92;4.18;;;;;;;9.16;78.85;100002.88;5035020;28;20044;-96
2023/01/13 10:30:49;;;;;;;23.50;2.80;;;;;;;9.10;80.43;100012.72;5023398;28;20034;-95
2023/01/13 10:34:02;;;;;;;;;;;;;;;;;;;;;
2023/01/13 10:39:42;;;;;;;34.45;4.72;;;;;;;9.13;81.13;100033.13;5335020;22;20053;-96
2023/01/13 10:42:15;;;;;;;24.73;5.00;;;;;;;9.40;78.48;100044.38;5050560;28;20106;-96
2023/01/13 10:44:57;;;;;;;25.00;3.70;;;;;;;9.30;79.01;100029.56;5053050;28;20017;-96
2023/01/13 10:47:34;;;;;;;15.30;4.50;;;;;;;9.37;79.62;100026.53;5050358;28;20465;-94
2023/01/13 10:50:07;;;;;;;18.20;2.83;;;;;;;9.70;76.00;100043.47;5029419;28;20029;-93
2023/01/13 10:52:40;;;;;;;27.95;3.08;;;;;;;10.07;75.21;100047.25;5029179;28;20021;-95
2023/01/13 10:55:32;;;;;;;19.83;3.42;;;;;;;11.24;69.78;100060.47;5029204;28;20029;-96
2023/01/13 10:58:16;;;;;;;19.27;4.47;;;;;;;11.74;66.93;100047.66;5029529;28;20071;-94
2023/01/13 11:00:42;;;;;;;31.55;4.22;;;;;;;11.11;68.63;100078.50;5027876;28;20029;-94
2023/01/13 11:03:17;;;;;;;25.77;3.97;;;;;;;11.64;67.90;100080.22;5029405;28;20026;-94
2023/01/13 11:06:06;;;;;;;23.88;3.00;;;;;;;11.70;66.37;100092.72;5028088;28;20479;-94
2023/01/13 11:08:45;;;;;;;16.60;2.72;;;;;;;10.93;69.04;100095.22;5019037;28;20506;-94
2023/01/13 11:11:41;;;;;;;29.95;3.88;;;;;;;10.32;73.72;100091.34;5013751;28;20053;-95
2023/01/13 11:14:32;;;;;;;15.27;3.35;;;;;;;10.57;72.66;100101.78;5017217;28;20060;-93
2023/01/13 11:17:27;;;;;;;30.73;5.38;;;;;;;10.10;74.41;100097.78;5030145;28;20029;-95
2023/01/13 11:20:13;;;;;;;24.40;3.75;;;;;;;10.36;73.92;100113.44;4995224;28;20030;-94
2023/01/13 11:22:51;;;;;;;23.95;4.32;;;;;;;10.93;71.66;100083.13;5013469;28;20022;-94
2023/01/13 11:26:00;;;;;;;18.20;2.92;;;;;;;12.13;67.56;100123.47;5015830;28;20083;-95
2023/01/13 11:28:49;;;;;;;23.25;4.22;;;;;;;12.27;65.41;100118.16;5013369;28;20029;-94
2023/01/13 11:31:23;;;;;;;18.95;3.35;;;;;;;11.78;67.88;100132.66;4999588;28;20037;-93
2023/01/13 11:33:56;;;;;;;17.40;3.05;;;;;;;12.25;66.05;100111.44;5019146;28;20124;-94
2023/01/13 11:36:49;;;;;;;23.02;4.25;;;;;;;13.32;60.05;100124.47;5041788;28;20034;-96
2023/01/13 11:39:54;;;;;;;19.90;3.38;;;;;;;13.33;60.20;100125.31;5036480;28;20041;-95
2023/01/13 11:42:37;;;;;;;17.77;3.15;;;;;;;13.38;59.33;100141.34;5037463;28;20436;-94
2023/01/13 11:45:16;;;;;;;24.75;5.63;;;;;;;13.45;60.12;100126.97;5029602;28;20030;-94
2023/01/13 11:47:46;;;;;;;26.48;4.60;;;;;;;13.43;59.54;100123.69;5035191;28;20064;-94
2023/01/13 11:50:33;;;;;;;20.80;3.00;;;;;;;13.80;57.36;100115.72;5034678;28;20048;-94
2023/01/13 11:53:45;;;;;;;21.83;3.28;;;;;;;13.52;58.59;100117.00;5035785;28;20034;-96
2023/01/13 11:56:35;;;;;;;17.48;3.45;;;;;;;12.55;62.41;100155.88;5016131;28;20033;-95
2023/01/13 11:59:03;;;;;;;15.57;3.97;;;;;;;12.78;60.99;100151.66;5020545;28;20034;-96
2023/01/13 12:02:11;;;;;;;15.90;3.60;;;;;;;13.47;57.88;100166.59;5030411;28;20476;-96
2023/01/13 12:04:51;;;;;;;20.35;3.05;;;;;;;13.07;58.49;100148.75;5039214;28;20079;-96
2023/01/13 12:07:29;;;;;;;15.90;3.80;;;;;;;12.67;59.46;100135.22;5037794;28;20056;-94
2023/01/13 12:10:28;;;;;;;14.90;2.85;;;;;;;12.66;59.55;100181.03;5038108;28;20472;-96
2023/01/13 12:13:22;;;;;;;14.07;3.00;;;;;;;12.69;60.93;100190.34;5039116;28;20029;-96
2023/01/13 12:16:26;;;;;;;24.25;4.25;;;;;;;12.26;60.43;100199.28;5036027;28;20029;-95
2023/01/13 12:19:14;;;;;;;21.77;2.83;;;;;;;12.16;61.00;100204.25;5036283;28;20025;-95
2023/01/13 12:22:03;;;;;;;17.15;3.15;;;;;;;11.68;63.57;100198.00;5038570;28;20140;-95
2023/01/13 12:24:57;;;;;;;24.30;3.20;;;;;;;10.40;68.20;100182.00;5038051;28;20037;-95
2023/01/13 12:27:40;;;;;;;19.00;3.13;;;;;;;9.71;71.79;100225.53;5043269;28;20033;-95
2023/01/13 12:30:25;;;;;;;30.30;5.35;;;;;;;9.57;72.03;100197.16;5046330;28;20056;-96
2023/01/13 12:32:57;;;;;;;26.30;3.70;;;;;;;9.49;73.20;100189.03;5024364;28;20177;-95
2023/01/13 12:35:36;;;;;;;22.83;4.38;;;;;;;10.24;69.60;100198.38;5018307;28;20406;-95
2023/01/13 12:38:27;;;;;;;24.42;3.58;;;;;;;11.06;67.34;100206.31;5015953;28;20036;-96
2023/01/13 12:41:04;;;;;;;18.70;4.57;;;;;;;10.80;68.48;100220.84;5015532;28;20381;-95